createdAt,value
2023-03-27T00:02:21.646Z,98761.47
2023-03-27T00:05:29.581Z,98754.16
2023-03-27T00:08:40.289Z,98757.00
2023-03-27T00:11:48.798Z,98750.44
2023-03-27T00:14:56.456Z,98748.63
2023-03-27T00:18:05.559Z,98737.44
2023-03-27T00:21:13.278Z,98736.63
2023-03-27T00:24:21.849Z,98722.81
2023-03-27T00:27:30.725Z,98727.47
2023-03-27T00:30:43.643Z,98726.25
2023-03-27T00:33:51.324Z,98716.50
2023-03-27T00:37:07.262Z,98719.53
2023-03-27T00:40:22.641Z,98707.50
2023-03-27T00:43:32.112Z,98702.00
2023-03-27T00:46:45.544Z,98701.16
2023-03-27T00:49:53.709Z,98703.22
2023-03-27T00:53:05.354Z,98687.72
2023-03-27T00:56:12.571Z,98684.91
2023-03-27T00:59:22.049Z,98679.25
2023-03-27T01:02:30.395Z,98671.09
2023-03-27T01:05:37.916Z,98674.56
2023-03-27T01:08:46.915Z,98667.00
2023-03-27T01:12:12.554Z,98662.53
2023-03-27T01:15:30.488Z,98649.12
2023-03-27T01:19:00.416Z,98644.34
2023-03-27T01:22:24.871Z,98632.78
2023-03-27T01:25:35.624Z,98635.69
2023-03-27T01:29:05.868Z,98626.75
2023-03-27T01:32:44.004Z,98628.75
2023-03-27T01:35:59.825Z,98619.19
2023-03-27T01:39:22.790Z,98620.66
2023-03-27T01:42:35.547Z,98617.53
2023-03-27T01:45:46.538Z,98608.91
2023-03-27T01:48:58.025Z,98609.50
2023-03-27T01:52:08.031Z,98604.44
2023-03-27T01:55:20.991Z,98614.44
2023-03-27T01:58:32.029Z,98603.50
2023-03-27T02:01:41.447Z,98593.53
2023-03-27T02:04:57.500Z,98600.22
2023-03-27T02:08:42.288Z,98602.50
2023-03-27T02:11:59.491Z,98604.31
2023-03-27T02:15:23.658Z,98600.19
2023-03-27T02:18:38.174Z,98595.88
2023-03-27T02:21:49.030Z,98601.41
2023-03-27T02:24:58.509Z,98604.22
2023-03-27T02:28:25.333Z,98600.38
2023-03-27T02:31:37.765Z,98599.22
2023-03-27T02:34:51.197Z,98591.00
2023-03-27T02:38:19.903Z,98576.56
2023-03-27T02:41:39.538Z,98555.22
2023-03-27T02:44:55.688Z,98543.78
2023-03-27T02:48:17.583Z,98533.03
2023-03-27T02:51:49.587Z,98526.16
2023-03-27T02:55:07.592Z,98524.94
2023-03-27T02:58:20.697Z,98512.56
2023-03-27T03:01:32.864Z,98516.16
2023-03-27T03:04:48.211Z,98509.88
2023-03-27T03:08:01.401Z,98508.22
2023-03-27T03:11:12.491Z,98502.38
2023-03-27T03:14:31.099Z,98499.69
2023-03-27T03:17:38.807Z,98494.56
2023-03-27T03:20:47.659Z,98501.06
2023-03-27T03:23:59.108Z,98494.75
2023-03-27T03:27:10.817Z,98506.34
2023-03-27T03:30:20.000Z,98492.75
2023-03-27T03:33:29.735Z,98495.97
2023-03-27T03:36:37.707Z,98498.22
2023-03-27T03:39:45.836Z,98496.22
2023-03-27T03:42:58.707Z,98505.75
2023-03-27T03:46:09.115Z,98507.00
2023-03-27T03:49:21.188Z,98503.00
2023-03-27T03:52:31.921Z,98490.22
2023-03-27T03:55:42.100Z,98492.63
2023-03-27T03:58:52.306Z,98494.41
2023-03-27T04:02:01.806Z,98487.28
2023-03-27T04:05:11.226Z,98490.97
2023-03-27T04:08:19.844Z,98483.44
2023-03-27T04:11:27.591Z,98485.06
2023-03-27T04:14:35.740Z,98480.38
2023-03-27T04:17:47.736Z,98486.88
2023-03-27T04:20:55.300Z,98488.50
2023-03-27T04:24:04.694Z,98491.75
2023-03-27T04:27:16.825Z,98488.75
2023-03-27T04:30:31.299Z,98486.75
2023-03-27T04:33:47.816Z,98495.03
2023-03-27T04:36:58.435Z,98483.25
2023-03-27T04:40:07.171Z,98484.28
2023-03-27T04:43:14.288Z,98487.69
2023-03-27T04:46:18.198Z,98487.66
2023-03-27T04:49:32.233Z,98486.03
2023-03-27T04:52:42.744Z,98479.31
2023-03-27T04:55:51.406Z,98476.69
2023-03-27T04:58:58.730Z,98474.44
2023-03-27T05:02:06.951Z,98476.63
2023-03-27T05:05:15.280Z,98468.31
2023-03-27T05:08:21.877Z,98464.25
2023-03-27T05:11:28.846Z,98458.75
2023-03-27T05:14:41.055Z,98459.34
2023-03-27T05:17:53.516Z,98455.50
2023-03-27T05:21:05.154Z,98454.66
2023-03-27T05:24:13.257Z,98455.47
2023-03-27T05:27:19.990Z,98456.69
2023-03-27T05:30:26.936Z,98457.94
2023-03-27T05:33:37.191Z,98447.38
2023-03-27T05:36:46.952Z,98441.88
2023-03-27T05:39:56.071Z,98452.25
2023-03-27T05:43:00.388Z,98442.31
2023-03-27T05:46:03.836Z,98437.22
2023-03-27T05:49:07.837Z,98432.97
2023-03-27T05:52:11.360Z,98425.84
2023-03-27T05:55:17.629Z,98434.59
2023-03-27T05:58:21.671Z,98431.09
2023-03-27T06:01:28.550Z,98419.06
2023-03-27T06:04:38.005Z,98417.25
2023-03-27T06:07:43.524Z,98420.12
2023-03-27T06:10:49.442Z,98413.81
2023-03-27T06:13:55.636Z,98414.44
2023-03-27T06:17:01.598Z,98417.13
2023-03-27T06:20:15.747Z,98411.78
2023-03-27T06:23:25.787Z,98411.50
2023-03-27T06:26:30.314Z,98411.16
2023-03-27T06:29:38.660Z,98414.63
2023-03-27T06:32:54.475Z,98417.25
2023-03-27T06:36:01.165Z,98405.47
2023-03-27T06:39:06.911Z,98404.88
2023-03-27T06:42:17.036Z,98404.22
2023-03-27T06:45:22.940Z,98403.47
2023-03-27T06:48:29.215Z,98411.97
2023-03-27T06:51:35.625Z,98406.69
2023-03-27T06:54:40.029Z,98405.28
2023-03-27T06:57:45.436Z,98412.78
2023-03-27T07:00:53.065Z,98410.16
2023-03-27T07:04:05.036Z,98410.31
2023-03-27T07:07:12.340Z,98395.69
2023-03-27T07:10:17.377Z,98396.97
2023-03-27T07:13:23.427Z,98404.66
2023-03-27T07:16:28.671Z,98402.59
2023-03-27T07:19:35.780Z,98408.06
2023-03-27T07:22:43.919Z,98418.38
2023-03-27T07:25:50.997Z,98422.47
2023-03-27T07:29:01.798Z,98422.75
2023-03-27T07:32:09.154Z,98423.34
2023-03-27T07:35:14.639Z,98415.44
2023-03-27T07:38:23.329Z,98418.72
2023-03-27T07:41:30.847Z,98417.28
2023-03-27T07:44:38.831Z,98424.59
2023-03-27T07:47:46.383Z,98426.16
2023-03-27T07:50:51.841Z,98427.38
2023-03-27T07:54:04.903Z,98434.66
2023-03-27T07:57:10.458Z,98441.22
2023-03-27T08:00:18.364Z,98442.03
2023-03-27T08:03:28.959Z,98433.09
2023-03-27T08:06:33.106Z,98431.91
2023-03-27T08:09:40.028Z,98441.81
2023-03-27T08:12:46.106Z,98433.06
2023-03-27T08:15:52.669Z,98420.00
2023-03-27T08:18:58.570Z,98432.34
2023-03-27T08:22:04.441Z,98422.81
2023-03-27T08:25:14.416Z,98425.50
2023-03-27T08:28:21.545Z,98444.38
2023-03-27T08:31:31.066Z,98456.28
2023-03-27T08:34:38.770Z,98456.66
2023-03-27T08:37:44.288Z,98452.78
2023-03-27T08:40:53.153Z,98452.41
2023-03-27T08:44:00.125Z,98448.53
2023-03-27T08:47:12.591Z,98448.53
2023-03-27T08:50:33.933Z,98454.97
2023-03-27T08:53:42.565Z,98457.25
2023-03-27T08:56:49.645Z,98467.72
2023-03-27T09:00:02.615Z,98464.84
2023-03-27T09:03:18.494Z,98466.25
2023-03-27T09:06:26.604Z,98465.50
2023-03-27T09:09:47.446Z,98469.63
2023-03-27T09:13:16.276Z,98476.56
2023-03-27T09:16:28.164Z,98476.97
2023-03-27T09:19:37.333Z,98476.22
2023-03-27T09:22:44.832Z,98478.47
2023-03-27T09:25:57.307Z,98479.97
2023-03-27T09:29:22.860Z,98495.91
2023-03-27T09:32:28.557Z,98495.78
2023-03-27T09:35:43.082Z,98497.38
2023-03-27T09:38:51.026Z,98508.09
2023-03-27T09:42:11.663Z,98512.78
2023-03-27T09:45:16.957Z,98511.50
2023-03-27T09:48:39.305Z,98515.16
2023-03-27T09:51:48.283Z,98513.84
2023-03-27T09:55:00.430Z,98522.59
2023-03-27T09:58:26.753Z,98523.97
2023-03-27T10:01:34.706Z,98532.50
2023-03-27T10:04:40.051Z,98535.06
2023-03-27T10:07:45.980Z,98533.06
2023-03-27T10:11:03.045Z,98537.09
2023-03-27T10:14:20.597Z,98542.38
2023-03-27T10:17:27.202Z,98542.31
2023-03-27T10:20:35.224Z,98539.06
2023-03-27T10:23:49.436Z,98537.56
2023-03-27T10:26:56.408Z,98539.16
2023-03-27T10:30:03.750Z,98540.97
2023-03-27T10:33:10.938Z,98544.19
2023-03-27T10:36:18.023Z,98543.00
2023-03-27T10:39:27.160Z,98553.81
2023-03-27T10:42:33.835Z,98558.06
2023-03-27T10:45:44.911Z,98558.81
2023-03-27T10:49:21.450Z,98562.78
2023-03-27T10:52:35.596Z,98559.13
2023-03-27T10:55:52.859Z,98564.44
2023-03-27T10:59:02.050Z,98563.50
2023-03-27T11:02:17.471Z,98571.34
2023-03-27T11:05:29.282Z,98560.06
2023-03-27T11:08:58.935Z,98560.59
2023-03-27T11:12:10.965Z,98576.81
2023-03-27T11:15:20.623Z,98582.25
2023-03-27T11:18:29.399Z,98574.09
2023-03-27T11:21:46.355Z,98574.84
2023-03-27T11:24:54.468Z,98585.44
2023-03-27T11:27:58.993Z,98580.81
2023-03-27T11:31:14.573Z,98579.81
2023-03-27T11:34:28.818Z,98578.19
2023-03-27T11:37:54.108Z,98581.06
2023-03-27T11:40:59.922Z,98590.91
2023-03-27T11:44:07.006Z,98582.44
2023-03-27T11:47:22.491Z,98578.44
2023-03-27T11:50:38.898Z,98584.06
2023-03-27T11:54:02.684Z,98586.41
2023-03-27T11:57:15.731Z,98588.25
2023-03-27T12:00:26.359Z,98581.22
2023-03-27T12:03:54.152Z,98583.72
2023-03-27T12:07:26.313Z,98589.88
2023-03-27T12:10:44.066Z,98590.97
2023-03-27T12:14:11.356Z,98595.97
2023-03-27T12:17:29.520Z,98591.91
2023-03-27T12:20:58.992Z,98592.72
2023-03-27T12:24:16.531Z,98605.00
2023-03-27T12:27:40.796Z,98607.25
2023-03-27T12:30:57.308Z,98606.66
2023-03-27T12:34:03.929Z,98619.78
2023-03-27T12:37:20.286Z,98624.47
2023-03-27T12:40:26.322Z,98611.94
2023-03-27T12:43:34.867Z,98627.84
2023-03-27T12:47:17.521Z,98626.16
2023-03-27T12:50:28.229Z,98645.19
2023-03-27T12:53:37.600Z,98653.34
2023-03-27T12:56:44.034Z,98652.75
2023-03-27T12:59:58.352Z,98658.59
2023-03-27T13:03:44.628Z,98670.31
2023-03-27T13:06:57.340Z,98679.41
2023-03-27T13:10:10.895Z,98705.25
2023-03-27T13:13:35.709Z,98709.44
2023-03-27T13:16:49.655Z,98686.84
2023-03-27T13:20:14.844Z,98725.63
2023-03-27T13:23:33.499Z,98723.59
2023-03-27T13:26:48.551Z,98740.53
2023-03-27T13:29:54.573Z,98742.47
2023-03-27T13:33:19.531Z,98736.25
2023-03-27T13:36:25.382Z,98761.50
2023-03-27T13:39:39.895Z,98779.00
2023-03-27T13:42:46.886Z,98785.75
2023-03-27T13:46:06.048Z,98756.09
2023-03-27T13:49:34.118Z,98796.50
2023-03-27T13:52:50.763Z,98798.47
2023-03-27T13:56:21.594Z,98817.81
2023-03-27T13:59:41.182Z,98814.72
2023-03-27T14:02:58.950Z,98831.09
2023-03-27T14:06:25.586Z,98869.22
2023-03-27T14:09:57.631Z,98863.50
2023-03-27T14:13:14.748Z,98876.25
2023-03-27T14:16:40.754Z,98899.22
2023-03-27T14:19:51.945Z,98913.41
2023-03-27T14:23:13.850Z,98924.75
2023-03-27T14:26:25.269Z,98908.81
2023-03-27T14:29:35.851Z,98935.66
2023-03-27T14:32:43.742Z,98964.28
2023-03-27T14:35:55.267Z,98964.59
2023-03-27T14:39:15.264Z,98949.50
2023-03-27T14:42:23.025Z,98967.56
2023-03-27T14:45:34.310Z,98986.94
2023-03-27T14:48:43.530Z,98999.59
2023-03-27T14:51:56.579Z,98997.78
2023-03-27T14:55:05.738Z,99009.28
2023-03-27T14:58:15.483Z,99012.75
2023-03-27T15:01:20.924Z,99006.97
2023-03-27T15:04:33.022Z,99045.78
2023-03-27T15:07:46.732Z,99033.28
2023-03-27T15:10:55.756Z,99053.31
2023-03-27T15:14:03.422Z,99051.84
2023-03-27T15:17:15.425Z,99070.69
2023-03-27T15:20:25.320Z,99090.09
2023-03-27T15:23:42.023Z,99097.44
2023-03-27T15:26:49.739Z,99110.38
2023-03-27T15:30:02.079Z,99126.13
2023-03-27T15:33:13.122Z,99106.22
2023-03-27T15:36:30.094Z,99126.03
2023-03-27T15:39:39.375Z,99128.34
2023-03-27T15:42:51.767Z,99133.88
2023-03-27T15:46:03.182Z,99148.81
2023-03-27T15:49:36.144Z,99184.38
2023-03-27T15:52:52.104Z,99181.38
2023-03-27T15:56:01.902Z,99170.75
2023-03-27T15:59:11.433Z,99200.97
2023-03-27T16:02:19.344Z,99197.75
2023-03-27T16:05:28.720Z,99245.78
2023-03-27T16:08:39.291Z,99226.91
2023-03-27T16:11:51.045Z,99238.37
2023-03-27T16:15:00.192Z,99259.06
2023-03-27T16:18:16.551Z,99267.25
2023-03-27T16:21:24.940Z,99296.09
2023-03-27T16:24:32.054Z,99283.81
2023-03-27T16:27:43.415Z,99322.19
2023-03-27T16:30:56.212Z,99288.53
2023-03-27T16:34:02.971Z,99307.87
2023-03-27T16:37:15.150Z,99322.66
2023-03-27T16:40:24.008Z,99317.91
2023-03-27T16:43:35.818Z,99332.69
2023-03-27T16:46:43.197Z,99370.00
2023-03-27T16:50:08.076Z,99364.84
2023-03-27T16:53:18.447Z,99369.44
2023-03-27T16:56:25.834Z,99376.16
2023-03-27T16:59:34.079Z,99399.31
2023-03-27T17:02:47.526Z,99397.25
2023-03-27T17:05:55.133Z,99402.62
2023-03-27T17:09:04.097Z,99419.34
2023-03-27T17:12:13.289Z,99418.53
2023-03-27T17:15:20.867Z,99445.34
2023-03-27T17:18:27.728Z,99459.28
2023-03-27T17:21:41.819Z,99448.12
2023-03-27T17:24:56.036Z,99457.81
2023-03-27T17:28:06.248Z,99479.62
2023-03-27T17:31:13.432Z,99497.87
2023-03-27T17:34:24.693Z,99512.81
2023-03-27T17:37:29.853Z,99519.16
2023-03-27T17:40:38.948Z,99504.84
2023-03-27T17:43:45.673Z,99505.78
2023-03-27T17:46:51.537Z,99509.03
2023-03-27T17:49:57.456Z,99525.59
2023-03-27T17:53:03.901Z,99527.25
2023-03-27T17:56:12.041Z,99524.81
2023-03-27T17:59:20.444Z,99554.09
2023-03-27T18:02:27.625Z,99544.16
2023-03-27T18:05:40.243Z,99542.09
2023-03-27T18:08:46.868Z,99539.06
2023-03-27T18:11:54.787Z,99554.13
2023-03-27T18:15:00.399Z,99558.16
2023-03-27T18:18:07.694Z,99559.94
2023-03-27T18:21:17.301Z,99590.97
2023-03-27T18:24:24.806Z,99567.41
2023-03-27T18:27:32.118Z,99576.63
2023-03-27T18:30:40.738Z,99597.59
2023-03-27T18:33:48.360Z,99585.47
2023-03-27T18:36:59.537Z,99584.63
2023-03-27T18:40:10.698Z,99584.38
2023-03-27T18:43:18.325Z,99576.78
2023-03-27T18:46:25.026Z,99584.50
2023-03-27T18:49:33.276Z,99581.50
2023-03-27T18:52:42.083Z,99583.00
2023-03-27T18:55:53.111Z,99575.28
2023-03-27T18:59:01.125Z,99571.28
2023-03-27T19:02:10.072Z,99590.19
2023-03-27T19:05:17.907Z,99602.56
2023-03-27T19:08:24.924Z,99597.09
2023-03-27T19:11:35.727Z,99590.84
2023-03-27T19:14:50.295Z,99618.47
2023-03-27T19:17:59.878Z,99608.81
2023-03-27T19:21:10.640Z,99615.53
2023-03-27T19:24:19.261Z,99619.97
2023-03-27T19:27:26.983Z,99628.94
2023-03-27T19:30:45.948Z,99636.63
2023-03-27T19:33:54.981Z,99649.19
2023-03-27T19:37:02.550Z,99639.53
2023-03-27T19:40:09.982Z,99662.28
2023-03-27T19:43:18.724Z,99661.03
2023-03-27T19:46:25.001Z,99655.38
2023-03-27T19:49:30.023Z,99674.00
2023-03-27T19:52:36.948Z,99691.09
2023-03-27T19:55:42.801Z,99690.78
2023-03-27T19:58:51.529Z,99706.91
2023-03-27T20:01:59.730Z,99699.47
2023-03-27T20:05:08.269Z,99690.66
2023-03-27T20:08:13.604Z,99706.66
2023-03-27T20:11:21.405Z,99697.44
2023-03-27T20:14:27.949Z,99709.69
2023-03-27T20:17:33.904Z,99694.53
2023-03-27T20:20:41.437Z,99692.75
2023-03-27T20:23:55.412Z,99674.66
2023-03-27T20:27:08.113Z,99675.25
2023-03-27T20:30:17.982Z,99680.87
2023-03-27T20:33:28.668Z,99690.53
2023-03-27T20:36:36.577Z,99704.88
2023-03-27T20:39:52.348Z,99718.09
2023-03-27T20:43:07.534Z,99734.87
2023-03-27T20:46:19.971Z,99740.28
2023-03-27T20:49:40.772Z,99730.22
2023-03-27T20:52:47.828Z,99733.91
2023-03-27T20:55:59.986Z,99759.69
2023-03-27T20:59:08.051Z,99744.28
2023-03-27T21:02:18.545Z,99755.28
2023-03-27T21:05:28.704Z,99760.47
2023-03-27T21:08:45.218Z,99766.41
2023-03-27T21:11:57.322Z,99760.47
2023-03-27T21:15:05.237Z,99778.38
2023-03-27T21:18:13.920Z,99765.03
2023-03-27T21:21:25.866Z,99781.28
2023-03-27T21:24:33.453Z,99777.81
2023-03-27T21:27:42.379Z,99782.47
2023-03-27T21:30:50.487Z,99786.16
2023-03-27T21:34:01.890Z,99774.31
2023-03-27T21:37:10.161Z,99775.94
2023-03-27T21:40:19.308Z,99789.88
2023-03-27T21:43:27.279Z,99802.97
2023-03-27T21:46:38.240Z,99789.19
2023-03-27T21:49:45.753Z,99795.25
2023-03-27T21:52:59.612Z,99824.44
2023-03-27T21:56:14.132Z,99848.94
2023-03-27T21:59:20.731Z,99827.31
2023-03-27T22:02:29.108Z,99841.47
2023-03-27T22:05:44.918Z,99838.97
2023-03-27T22:08:57.825Z,99841.66
2023-03-27T22:12:08.798Z,99854.66
2023-03-27T22:15:16.303Z,99846.25
2023-03-27T22:18:25.383Z,99862.44
2023-03-27T22:21:35.748Z,99858.66
2023-03-27T22:24:46.087Z,99868.84
2023-03-27T22:27:55.341Z,99867.12
2023-03-27T22:31:14.939Z,99865.41
2023-03-27T22:34:25.421Z,99867.31
2023-03-27T22:37:31.410Z,99884.38
2023-03-27T22:40:40.843Z,99888.06
2023-03-27T22:43:50.140Z,99890.56
2023-03-27T22:47:04.170Z,99898.28
2023-03-27T22:50:18.624Z,99903.25
2023-03-27T22:53:30.021Z,99913.16
2023-03-27T22:56:42.318Z,99908.22
2023-03-27T22:59:54.290Z,99904.88
2023-03-27T23:03:05.271Z,99911.78
2023-03-27T23:06:18.259Z,99920.31
2023-03-27T23:09:32.360Z,99916.19
2023-03-27T23:12:41.422Z,99908.91
2023-03-27T23:15:51.212Z,99919.38
2023-03-27T23:19:00.526Z,99939.25
2023-03-27T23:22:08.413Z,99942.25
2023-03-27T23:25:15.548Z,99944.03
2023-03-27T23:28:23.390Z,99958.78
2023-03-27T23:31:33.531Z,99956.66
2023-03-27T23:34:44.384Z,99955.03
2023-03-27T23:37:51.270Z,99960.97
2023-03-27T23:41:01.568Z,99966.09
2023-03-27T23:44:10.588Z,99958.72
2023-03-27T23:47:19.999Z,99963.37
2023-03-27T23:50:30.942Z,99977.84
2023-03-27T23:53:39.321Z,99970.84
2023-03-27T23:56:47.031Z,99987.47
2023-03-27T23:59:55.755Z,99980.56
